createdAt,value
2018-05-21T00:01:45.234Z,16.10
2018-05-21T00:04:12.820Z,16.10
2018-05-21T00:06:40.358Z,16.10
2018-05-21T00:09:07.950Z,16.00
2018-05-21T00:11:35.595Z,16.00
2018-05-21T00:14:03.357Z,16.00
2018-05-21T00:16:31.007Z,15.90
2018-05-21T00:18:58.566Z,15.90
2018-05-21T00:21:26.042Z,15.90
2018-05-21T00:23:53.762Z,15.80
2018-05-21T00:26:21.229Z,15.80
2018-05-21T00:28:48.912Z,15.70
2018-05-21T00:31:16.362Z,15.70
2018-05-21T00:33:43.811Z,15.70
2018-05-21T00:36:11.251Z,15.60
2018-05-21T00:38:38.784Z,15.60
2018-05-21T00:41:07.929Z,15.50
2018-05-21T00:43:35.426Z,15.50
2018-05-21T00:46:03.056Z,15.50
2018-05-21T00:48:30.711Z,15.50
2018-05-21T00:50:58.368Z,15.40
2018-05-21T00:53:25.918Z,15.40
2018-05-21T00:55:53.365Z,15.30
2018-05-21T00:58:20.953Z,15.20
2018-05-21T01:00:48.610Z,15.20
2018-05-21T01:03:16.073Z,15.20
2018-05-21T01:05:44.354Z,15.20
2018-05-21T01:08:11.849Z,15.10
2018-05-21T01:10:39.369Z,15.00
2018-05-21T01:13:06.797Z,15.00
2018-05-21T01:15:34.266Z,14.90
2018-05-21T01:18:01.717Z,14.90
2018-05-21T01:20:29.161Z,14.90
2018-05-21T01:22:56.751Z,14.80
2018-05-21T01:25:24.414Z,14.80
2018-05-21T01:27:52.054Z,14.70
2018-05-21T01:30:19.545Z,14.70
2018-05-21T01:32:47.000Z,14.60
2018-05-21T01:35:14.632Z,14.60
2018-05-21T01:37:42.299Z,14.60
2018-05-21T01:40:09.847Z,14.60
2018-05-21T01:42:37.280Z,14.60
2018-05-21T01:45:04.741Z,14.60
2018-05-21T01:47:32.321Z,14.50
2018-05-21T01:49:59.772Z,14.50
2018-05-21T01:52:27.451Z,14.50
2018-05-21T01:54:55.097Z,14.50
2018-05-21T01:57:22.537Z,14.50
2018-05-21T01:59:50.000Z,14.50
2018-05-21T02:02:17.461Z,14.40
2018-05-21T02:04:44.912Z,14.40
2018-05-21T02:07:12.461Z,14.40
2018-05-21T02:09:40.066Z,14.40
2018-05-21T02:12:09.012Z,14.20
2018-05-21T02:14:36.596Z,14.20
2018-05-21T02:17:04.132Z,14.20
2018-05-21T02:19:31.718Z,14.20
2018-05-21T02:21:59.182Z,14.10
2018-05-21T02:24:26.692Z,14.10
2018-05-21T02:26:54.227Z,14.10
2018-05-21T02:29:21.937Z,14.10
2018-05-21T02:31:49.487Z,14.10
2018-05-21T02:34:16.955Z,14.10
2018-05-21T02:36:44.512Z,14.00
2018-05-21T02:39:12.191Z,14.00
2018-05-21T02:41:39.658Z,14.00
2018-05-21T02:44:07.104Z,13.90
2018-05-21T02:46:34.536Z,13.90
2018-05-21T02:49:02.220Z,13.90
2018-05-21T02:51:29.857Z,13.90
2018-05-21T02:53:58.363Z,13.90
2018-05-21T02:56:27.343Z,13.90
2018-05-21T02:58:54.918Z,13.90
2018-05-21T03:01:22.556Z,13.90
2018-05-21T03:03:50.234Z,13.80
2018-05-21T03:06:17.880Z,13.70
2018-05-21T03:08:45.576Z,13.70
2018-05-21T03:11:13.069Z,13.70
2018-05-21T03:13:40.651Z,13.70
2018-05-21T03:16:08.123Z,13.60
2018-05-21T03:18:35.559Z,13.60
2018-05-21T03:21:03.008Z,13.60
2018-05-21T03:23:30.473Z,13.60
2018-05-21T03:25:57.933Z,13.50
2018-05-21T03:28:25.604Z,13.50
2018-05-21T03:30:53.129Z,13.50
2018-05-21T03:33:20.703Z,13.50
2018-05-21T03:35:48.209Z,13.50
2018-05-21T03:38:15.844Z,13.40
2018-05-21T03:40:43.509Z,13.40
2018-05-21T03:43:12.607Z,13.40
2018-05-21T03:45:40.071Z,13.40
2018-05-21T03:48:07.509Z,13.40
2018-05-21T03:50:36.487Z,13.30
2018-05-21T03:53:04.050Z,13.30
2018-05-21T03:55:31.724Z,13.30
2018-05-21T03:58:00.825Z,13.30
2018-05-21T04:00:40.145Z,13.30
2018-05-21T04:03:19.381Z,13.30
2018-05-21T04:05:46.818Z,13.40
2018-05-21T04:08:14.584Z,13.40
2018-05-21T04:10:43.068Z,13.40
2018-05-21T04:13:10.736Z,13.40
2018-05-21T04:15:38.277Z,13.40
2018-05-21T04:18:06.072Z,13.40
2018-05-21T04:20:33.723Z,13.40
2018-05-21T04:23:01.385Z,13.40
2018-05-21T04:25:28.930Z,13.40
2018-05-21T04:27:56.382Z,13.40
2018-05-21T04:30:23.903Z,13.30
2018-05-21T04:32:51.341Z,13.30
2018-05-21T04:35:19.572Z,13.20
2018-05-21T04:37:47.013Z,13.20
2018-05-21T04:40:14.546Z,13.20
2018-05-21T04:42:42.063Z,13.20
2018-05-21T04:45:09.709Z,13.30
2018-05-21T04:47:37.387Z,13.30
2018-05-21T04:50:04.839Z,13.30
2018-05-21T04:52:32.278Z,13.40
2018-05-21T04:54:59.955Z,13.40
2018-05-21T04:57:27.406Z,13.50
2018-05-21T04:59:55.053Z,13.50
2018-05-21T05:02:22.502Z,13.60
2018-05-21T05:04:49.968Z,13.70
2018-05-21T05:07:17.451Z,13.80
2018-05-21T05:09:45.915Z,13.90
2018-05-21T05:12:13.352Z,13.90
2018-05-21T05:14:41.036Z,14.00
2018-05-21T05:17:08.683Z,14.10
2018-05-21T05:19:36.373Z,14.00
2018-05-21T05:22:03.936Z,14.10
2018-05-21T05:24:31.545Z,14.30
2018-05-21T05:26:59.010Z,14.30
2018-05-21T05:29:26.574Z,14.40
2018-05-21T05:31:54.241Z,14.40
2018-05-21T05:34:21.776Z,14.50
2018-05-21T05:36:49.230Z,14.50
2018-05-21T05:39:16.809Z,14.60
2018-05-21T05:41:44.271Z,14.70
2018-05-21T05:44:11.733Z,14.80
2018-05-21T05:46:39.211Z,14.90
2018-05-21T05:49:06.667Z,15.00
2018-05-21T05:51:34.913Z,15.20
2018-05-21T05:54:02.571Z,15.20
2018-05-21T05:56:30.139Z,15.30
2018-05-21T05:58:57.700Z,15.50
2018-05-21T06:01:25.348Z,15.60
2018-05-21T06:03:52.805Z,15.70
2018-05-21T06:06:20.266Z,15.70
2018-05-21T06:08:47.932Z,15.80
2018-05-21T06:11:15.471Z,15.80
2018-05-21T06:13:42.925Z,15.90
2018-05-21T06:16:10.394Z,15.90
2018-05-21T06:18:37.967Z,16.00
2018-05-21T06:21:05.622Z,16.10
2018-05-21T06:23:33.291Z,16.30
2018-05-21T06:26:00.842Z,16.30
2018-05-21T06:28:28.591Z,16.30
2018-05-21T06:30:56.087Z,16.40
2018-05-21T06:33:23.523Z,16.40
2018-05-21T06:35:51.023Z,16.60
2018-05-21T06:38:18.502Z,16.70
2018-05-21T06:40:46.096Z,16.70
2018-05-21T06:43:13.748Z,16.80
2018-05-21T06:45:41.278Z,16.90
2018-05-21T06:48:08.950Z,17.00
2018-05-21T06:50:36.456Z,17.10
2018-05-21T06:53:04.177Z,17.20
2018-05-21T06:55:31.845Z,17.40
2018-05-21T06:57:59.321Z,17.50
2018-05-21T07:00:26.871Z,17.60
2018-05-21T07:02:54.416Z,17.70
2018-05-21T07:05:21.942Z,17.70
2018-05-21T07:07:51.089Z,17.80
2018-05-21T07:10:18.760Z,17.80
2018-05-21T07:12:46.977Z,18.10
2018-05-21T07:15:14.461Z,18.10
2018-05-21T07:17:41.922Z,18.20
2018-05-21T07:20:10.792Z,18.40
2018-05-21T07:22:38.243Z,18.50
2018-05-21T07:25:05.813Z,18.60
2018-05-21T07:27:33.280Z,18.60
2018-05-21T07:30:00.808Z,18.70
2018-05-21T07:32:28.291Z,18.80
2018-05-21T07:34:55.844Z,18.90
2018-05-21T07:37:23.331Z,19.00
2018-05-21T07:39:51.128Z,19.10
2018-05-21T07:42:18.827Z,19.20
2018-05-21T07:44:46.451Z,19.20
2018-05-21T07:47:14.073Z,19.30
2018-05-21T07:49:42.515Z,19.30
2018-05-21T07:52:09.974Z,19.40
2018-05-21T07:54:37.475Z,19.60
2018-05-21T07:57:04.923Z,19.70
2018-05-21T07:59:33.582Z,19.70
2018-05-21T08:02:01.105Z,19.80
2018-05-21T08:04:28.549Z,19.80
2018-05-21T08:06:56.144Z,19.90
2018-05-21T08:09:24.001Z,19.90
2018-05-21T08:11:51.494Z,20.10
2018-05-21T08:14:19.041Z,20.20
2018-05-21T08:16:46.737Z,20.20
2018-05-21T08:19:15.697Z,20.30
2018-05-21T08:21:43.259Z,20.40
2018-05-21T08:24:11.045Z,20.50
2018-05-21T08:26:39.056Z,20.60
2018-05-21T08:29:06.949Z,20.60
2018-05-21T08:31:34.409Z,20.60
2018-05-21T08:34:02.039Z,20.60
2018-05-21T08:36:29.626Z,20.70
2018-05-21T08:38:57.097Z,20.80
2018-05-21T08:41:24.544Z,20.90
2018-05-21T08:43:51.997Z,21.00
2018-05-21T08:46:19.578Z,21.20
2018-05-21T08:48:49.309Z,21.20
2018-05-21T08:51:17.156Z,21.10
2018-05-21T08:53:45.610Z,21.30
2018-05-21T08:56:13.986Z,21.30
2018-05-21T08:58:42.676Z,21.40
2018-05-21T09:01:10.178Z,21.30
2018-05-21T09:03:38.810Z,21.50
2018-05-21T09:06:06.294Z,21.60
2018-05-21T09:08:33.916Z,21.60
2018-05-21T09:11:01.910Z,21.70
2018-05-21T09:13:29.361Z,21.70
2018-05-21T09:15:56.829Z,21.70
2018-05-21T09:18:24.384Z,21.90
2018-05-21T09:20:51.840Z,22.00
2018-05-21T09:23:19.368Z,22.00
2018-05-21T09:25:46.806Z,22.10
2018-05-21T09:28:14.336Z,22.20
2018-05-21T09:30:42.545Z,22.30
2018-05-21T09:33:10.137Z,22.30
2018-05-21T09:35:37.580Z,22.30
2018-05-21T09:38:05.116Z,22.30
2018-05-21T09:40:32.704Z,22.40
2018-05-21T09:43:00.220Z,22.50
2018-05-21T09:45:27.826Z,22.60
2018-05-21T09:47:55.969Z,22.60
2018-05-21T09:50:23.620Z,22.60
2018-05-21T09:52:51.077Z,22.60
2018-05-21T09:55:18.674Z,22.60
2018-05-21T09:57:46.306Z,22.70
2018-05-21T10:00:16.545Z,22.80
2018-05-21T10:02:44.095Z,22.70
2018-05-21T10:05:11.541Z,22.80
2018-05-21T10:07:39.096Z,22.80
2018-05-21T10:10:06.635Z,22.90
2018-05-21T10:12:34.345Z,22.90
2018-05-21T10:15:01.866Z,22.90
2018-05-21T10:17:29.341Z,23.00
2018-05-21T10:19:56.910Z,23.10
2018-05-21T10:22:25.864Z,23.10
2018-05-21T10:24:53.342Z,23.10
2018-05-21T10:27:20.904Z,23.10
2018-05-21T10:29:48.383Z,23.20
2018-05-21T10:32:16.660Z,23.40
2018-05-21T10:34:44.126Z,23.30
2018-05-21T10:37:11.672Z,23.30
2018-05-21T10:39:39.226Z,23.40
2018-05-21T10:42:06.754Z,23.50
2018-05-21T10:44:34.210Z,23.50
2018-05-21T10:47:01.677Z,23.50
2018-05-21T10:49:29.108Z,23.60
2018-05-21T10:51:56.717Z,23.60
2018-05-21T10:54:24.240Z,23.60
2018-05-21T10:56:51.804Z,23.80
2018-05-21T10:59:19.293Z,23.80
2018-05-21T11:01:46.848Z,23.80
2018-05-21T11:04:14.244Z,23.80
2018-05-21T11:06:41.717Z,24.00
2018-05-21T11:09:09.190Z,23.90
2018-05-21T11:11:36.749Z,23.90
2018-05-21T11:14:04.185Z,23.90
2018-05-21T11:16:31.860Z,24.00
2018-05-21T11:18:59.545Z,24.00
2018-05-21T11:21:26.999Z,24.00
2018-05-21T11:23:54.456Z,24.00
2018-05-21T11:26:23.410Z,24.00
2018-05-21T11:28:51.024Z,24.00
2018-05-21T11:31:18.529Z,24.10
2018-05-21T11:33:46.106Z,24.10
2018-05-21T11:36:13.790Z,24.00
2018-05-21T11:38:41.228Z,24.10
2018-05-21T11:41:08.714Z,24.20
2018-05-21T11:43:36.336Z,24.20
2018-05-21T11:46:03.888Z,24.30
2018-05-21T11:48:31.418Z,24.30
2018-05-21T11:50:58.882Z,24.30
2018-05-21T11:53:26.325Z,24.30
2018-05-21T11:55:53.768Z,24.30
2018-05-21T11:58:22.460Z,24.30
2018-05-21T12:00:50.682Z,24.40
2018-05-21T12:03:18.143Z,24.40
2018-05-21T12:05:45.602Z,24.40
2018-05-21T12:08:13.159Z,24.40
2018-05-21T12:10:40.629Z,24.50
2018-05-21T12:13:08.163Z,24.40
2018-05-21T12:15:35.717Z,24.50
2018-05-21T12:18:03.180Z,24.50
2018-05-21T12:20:30.845Z,24.50
2018-05-21T12:22:58.318Z,24.50
2018-05-21T12:25:25.760Z,24.50
2018-05-21T12:27:53.197Z,24.50
2018-05-21T12:30:20.886Z,24.70
2018-05-21T12:32:48.526Z,24.70
2018-05-21T12:35:15.976Z,24.80
2018-05-21T12:37:43.447Z,24.90
2018-05-21T12:40:10.973Z,24.80
2018-05-21T12:42:38.553Z,24.80
2018-05-21T12:45:06.012Z,24.70
2018-05-21T12:47:33.553Z,24.80
2018-05-21T12:50:01.058Z,24.90
2018-05-21T12:52:28.791Z,25.00
2018-05-21T12:54:56.448Z,25.00
2018-05-21T12:57:24.147Z,25.10
2018-05-21T12:59:51.771Z,25.10
2018-05-21T13:02:19.316Z,25.00
2018-05-21T13:04:46.892Z,25.00
2018-05-21T13:07:14.563Z,25.00
2018-05-21T13:09:43.576Z,24.90
2018-05-21T13:12:11.913Z,25.10
2018-05-21T13:14:39.459Z,25.00
2018-05-21T13:17:06.912Z,25.10
2018-05-21T13:19:34.436Z,25.00
2018-05-21T13:22:02.774Z,25.00
2018-05-21T13:24:30.302Z,25.00
2018-05-21T13:26:57.827Z,24.90
2018-05-21T13:29:26.263Z,25.00
2018-05-21T13:31:53.838Z,24.90
2018-05-21T13:34:22.803Z,24.90
2018-05-21T13:36:50.369Z,24.90
2018-05-21T13:39:17.800Z,24.90
2018-05-21T13:41:45.484Z,24.90
2018-05-21T13:44:13.037Z,25.00
2018-05-21T13:46:40.481Z,24.90
2018-05-21T13:49:08.065Z,24.90
2018-05-21T13:51:35.722Z,24.90
2018-05-21T13:54:03.367Z,25.00
2018-05-21T13:56:30.835Z,25.00
2018-05-21T13:58:58.497Z,25.10
2018-05-21T14:01:25.923Z,25.10
2018-05-21T14:03:53.614Z,25.10
2018-05-21T14:06:21.159Z,25.10
2018-05-21T14:08:48.927Z,25.10
2018-05-21T14:11:16.462Z,25.10
2018-05-21T14:13:44.084Z,25.20
2018-05-21T14:16:11.796Z,25.10
2018-05-21T14:18:39.381Z,25.00
2018-05-21T14:21:07.038Z,25.20
2018-05-21T14:23:34.491Z,25.20
2018-05-21T14:26:01.980Z,25.30
2018-05-21T14:28:29.469Z,25.40
2018-05-21T14:30:56.932Z,25.40
2018-05-21T14:33:24.375Z,25.40
2018-05-21T14:35:51.988Z,25.40
2018-05-21T14:38:21.085Z,25.30
2018-05-21T14:40:48.802Z,25.30
2018-05-21T14:43:16.381Z,25.40
2018-05-21T14:45:44.041Z,25.60
2018-05-21T14:48:11.568Z,25.90
2018-05-21T14:50:39.906Z,26.10
2018-05-21T14:53:07.716Z,26.10
2018-05-21T14:55:35.178Z,25.80
2018-05-21T14:58:02.701Z,25.60
2018-05-21T15:00:31.060Z,25.40
2018-05-21T15:02:58.517Z,25.40
2018-05-21T15:05:26.028Z,25.40
2018-05-21T15:07:53.596Z,25.40
2018-05-21T15:10:21.082Z,25.40
2018-05-21T15:12:48.524Z,25.40
2018-05-21T15:15:16.387Z,25.40
2018-05-21T15:17:44.054Z,25.50
2018-05-21T15:20:11.746Z,25.50
2018-05-21T15:22:39.272Z,25.40
2018-05-21T15:25:07.529Z,25.40
2018-05-21T15:27:35.021Z,25.20
2018-05-21T15:30:03.297Z,25.10
2018-05-21T15:32:30.854Z,25.20
2018-05-21T15:34:58.302Z,25.20
2018-05-21T15:37:25.792Z,25.20
2018-05-21T15:39:54.671Z,25.10
2018-05-21T15:42:22.175Z,25.10
2018-05-21T15:44:49.861Z,25.10
2018-05-21T15:47:17.683Z,25.00
2018-05-21T15:49:45.277Z,25.00
2018-05-21T15:52:12.856Z,24.90
2018-05-21T15:54:40.398Z,24.90
2018-05-21T15:57:07.854Z,25.00
2018-05-21T15:59:35.493Z,25.00
2018-05-21T16:02:02.949Z,24.90
2018-05-21T16:04:30.421Z,24.90
2018-05-21T16:06:57.872Z,24.90
2018-05-21T16:09:25.425Z,24.80
2018-05-21T16:11:52.865Z,24.90
2018-05-21T16:14:20.335Z,24.80
2018-05-21T16:16:47.817Z,24.70
2018-05-21T16:19:15.353Z,24.70
2018-05-21T16:21:43.033Z,24.70
2018-05-21T16:24:10.484Z,24.70
2018-05-21T16:26:37.939Z,24.70
2018-05-21T16:29:05.656Z,24.70
2018-05-21T16:31:33.337Z,24.70
2018-05-21T16:34:00.804Z,24.70
2018-05-21T16:36:28.308Z,24.70
2018-05-21T16:38:55.823Z,24.70
2018-05-21T16:41:23.419Z,24.70
2018-05-21T16:43:50.939Z,24.70
2018-05-21T16:46:18.615Z,24.60
2018-05-21T16:48:46.120Z,24.60
2018-05-21T16:51:13.579Z,24.60
2018-05-21T16:53:41.197Z,24.60
2018-05-21T16:56:08.892Z,24.50
2018-05-21T16:58:36.613Z,24.50
2018-05-21T17:01:04.080Z,24.50
2018-05-21T17:03:32.363Z,24.50
2018-05-21T17:05:59.972Z,24.50
2018-05-21T17:08:27.885Z,24.50
2018-05-21T17:10:56.220Z,24.40
2018-05-21T17:13:24.364Z,24.40
2018-05-21T17:15:51.844Z,24.40
2018-05-21T17:18:19.425Z,24.30
2018-05-21T17:20:47.777Z,24.40
2018-05-21T17:23:15.799Z,24.40
2018-05-21T17:25:43.301Z,24.40
2018-05-21T17:28:10.885Z,24.30
2018-05-21T17:30:38.446Z,24.30
2018-05-21T17:33:05.884Z,24.30
2018-05-21T17:35:33.511Z,24.20
2018-05-21T17:38:01.180Z,24.10
2018-05-21T17:40:28.861Z,24.00
2018-05-21T17:42:56.367Z,24.00
2018-05-21T17:45:24.706Z,24.00
2018-05-21T17:47:52.188Z,24.00
2018-05-21T17:50:19.826Z,24.00
2018-05-21T17:52:47.468Z,24.00
2018-05-21T17:55:14.902Z,24.00
2018-05-21T17:57:42.761Z,23.90
2018-05-21T18:00:10.489Z,23.80
2018-05-21T18:02:37.942Z,23.80
2018-05-21T18:05:05.427Z,23.70
2018-05-21T18:07:33.081Z,23.70
2018-05-21T18:10:00.738Z,23.60
2018-05-21T18:12:28.232Z,23.60
2018-05-21T18:14:55.682Z,23.50
2018-05-21T18:17:23.207Z,23.50
2018-05-21T18:19:51.768Z,23.40
2018-05-21T18:22:19.473Z,23.40
2018-05-21T18:24:47.035Z,23.40
2018-05-21T18:27:14.553Z,23.30
2018-05-21T18:29:42.035Z,23.20
2018-05-21T18:32:09.631Z,23.20
2018-05-21T18:34:37.745Z,23.10
2018-05-21T18:37:05.382Z,23.10
2018-05-21T18:39:32.871Z,23.10
2018-05-21T18:42:00.693Z,23.00
2018-05-21T18:44:28.170Z,23.00
2018-05-21T18:46:55.886Z,22.90
2018-05-21T18:49:24.719Z,23.00
2018-05-21T18:51:52.340Z,22.90
2018-05-21T18:54:20.293Z,22.80
2018-05-21T18:56:48.509Z,22.70
2018-05-21T18:59:16.846Z,22.70
2018-05-21T19:01:45.292Z,22.60
2018-05-21T19:04:12.787Z,22.60
2018-05-21T19:06:40.565Z,22.50
2018-05-21T19:09:08.407Z,22.50
2018-05-21T19:11:36.106Z,22.40
2018-05-21T19:14:03.659Z,22.30
2018-05-21T19:16:31.171Z,22.30
2018-05-21T19:18:59.544Z,22.10
2018-05-21T19:21:26.993Z,22.10
2018-05-21T19:23:54.515Z,22.10
2018-05-21T19:26:22.070Z,22.00
2018-05-21T19:28:49.734Z,22.00
2018-05-21T19:31:17.388Z,22.00
2018-05-21T19:33:45.031Z,21.90
2018-05-21T19:36:12.499Z,21.90
2018-05-21T19:38:40.113Z,21.80
2018-05-21T19:41:08.430Z,21.70
2018-05-21T19:43:36.106Z,21.70
2018-05-21T19:46:03.566Z,21.70
2018-05-21T19:48:31.289Z,21.60
2018-05-21T19:50:58.996Z,21.60
2018-05-21T19:53:26.533Z,21.50
2018-05-21T19:55:54.206Z,21.50
2018-05-21T19:58:21.710Z,21.40
2018-05-21T20:00:49.208Z,21.30
2018-05-21T20:03:17.049Z,21.20
2018-05-21T20:05:44.625Z,21.10
2018-05-21T20:08:12.169Z,21.10
2018-05-21T20:10:39.687Z,21.10
2018-05-21T20:13:08.017Z,20.90
2018-05-21T20:15:35.460Z,20.90
2018-05-21T20:18:02.947Z,20.90
2018-05-21T20:20:41.242Z,20.80
2018-05-21T20:23:08.924Z,20.80
2018-05-21T20:25:36.497Z,20.70
2018-05-21T20:28:04.715Z,20.60
2018-05-21T20:30:32.190Z,20.60
2018-05-21T20:32:59.629Z,20.60
2018-05-21T20:35:27.128Z,20.50
2018-05-21T20:37:54.741Z,20.50
2018-05-21T20:40:22.267Z,20.40
2018-05-21T20:42:50.476Z,20.40
2018-05-21T20:45:18.053Z,20.40
2018-05-21T20:47:45.511Z,20.40
2018-05-21T20:50:13.198Z,20.40
2018-05-21T20:52:40.826Z,20.40
2018-05-21T20:55:08.292Z,20.30
2018-05-21T20:57:35.835Z,20.30
2018-05-21T21:00:03.357Z,20.20
2018-05-21T21:02:31.604Z,20.20
2018-05-21T21:04:59.058Z,20.20
2018-05-21T21:07:26.584Z,20.20
2018-05-21T21:09:54.055Z,20.20
2018-05-21T21:12:21.586Z,20.20
2018-05-21T21:14:49.164Z,20.10
2018-05-21T21:17:16.834Z,20.10
2018-05-21T21:19:45.390Z,20.10
2018-05-21T21:22:12.837Z,20.00
2018-05-21T21:24:40.300Z,20.00
2018-05-21T21:27:07.747Z,20.00
2018-05-21T21:29:35.269Z,20.00
2018-05-21T21:32:03.623Z,20.00
2018-05-21T21:34:31.146Z,20.00
2018-05-21T21:36:58.734Z,20.00
2018-05-21T21:39:26.386Z,20.00
2018-05-21T21:41:53.837Z,20.00
2018-05-21T21:44:21.304Z,20.00
2018-05-21T21:46:48.971Z,19.90
2018-05-21T21:49:16.493Z,19.90
2018-05-21T21:51:44.068Z,19.80
2018-05-21T21:54:11.517Z,19.80
2018-05-21T21:56:39.269Z,19.80
2018-05-21T21:59:06.805Z,19.80
2018-05-21T22:01:34.316Z,19.80
2018-05-21T22:04:01.848Z,19.70
2018-05-21T22:06:29.300Z,19.70
2018-05-21T22:08:56.889Z,19.70
2018-05-21T22:11:24.427Z,19.70
2018-05-21T22:13:51.867Z,19.70
2018-05-21T22:16:19.315Z,19.60
2018-05-21T22:18:46.909Z,19.50
2018-05-21T22:21:14.442Z,19.40
2018-05-21T22:23:42.043Z,19.40
2018-05-21T22:26:09.718Z,19.40
2018-05-21T22:28:37.156Z,19.40
2018-05-21T22:31:04.608Z,19.40
2018-05-21T22:33:32.144Z,19.40
2018-05-21T22:35:59.592Z,19.40
2018-05-21T22:38:27.176Z,19.40
2018-05-21T22:40:54.640Z,19.40
2018-05-21T22:43:22.174Z,19.30
2018-05-21T22:45:49.746Z,19.30
2018-05-21T22:48:17.284Z,19.30
2018-05-21T22:50:44.855Z,19.20
2018-05-21T22:53:12.293Z,19.20
2018-05-21T22:55:39.743Z,19.20
2018-05-21T22:58:07.247Z,19.20
2018-05-21T23:00:34.764Z,19.10
2018-05-21T23:03:02.227Z,19.10
2018-05-21T23:05:29.674Z,19.10
2018-05-21T23:07:57.267Z,19.10
2018-05-21T23:10:24.921Z,19.00
2018-05-21T23:12:52.496Z,19.00
2018-05-21T23:15:19.955Z,18.90
2018-05-21T23:17:47.493Z,18.90
2018-05-21T23:20:14.932Z,18.90
2018-05-21T23:22:44.200Z,18.80
2018-05-21T23:25:12.396Z,18.80
2018-05-21T23:27:39.858Z,18.80
2018-05-21T23:30:07.377Z,18.80
2018-05-21T23:32:35.724Z,18.70
2018-05-21T23:35:03.295Z,18.70
2018-05-21T23:37:30.785Z,18.70
2018-05-21T23:39:58.363Z,18.70
2018-05-21T23:42:25.827Z,18.60
2018-05-21T23:44:53.264Z,18.60
2018-05-21T23:47:20.734Z,18.60
2018-05-21T23:49:48.266Z,18.60
2018-05-21T23:52:15.711Z,18.50
2018-05-21T23:54:44.050Z,18.40
2018-05-21T23:57:11.715Z,18.40
2018-05-21T23:59:40.807Z,18.30
